createdAt,value
2023-01-19T00:00:53.470Z,-0.54
2023-01-19T00:03:20.167Z,-0.68
2023-01-19T00:05:46.992Z,-0.63
2023-01-19T00:08:16.673Z,-0.63
2023-01-19T00:10:45.420Z,-0.64
2023-01-19T00:13:12.579Z,-0.62
2023-01-19T00:15:39.298Z,-0.66
2023-01-19T00:18:06.142Z,-0.73
2023-01-19T00:20:35.317Z,-0.73
2023-01-19T00:23:03.368Z,-0.71
2023-01-19T00:25:30.744Z,-0.59
2023-01-19T00:27:57.649Z,-0.56
2023-01-19T00:30:25.138Z,-0.57
2023-01-19T00:32:51.870Z,-0.51
2023-01-19T00:35:18.523Z,-0.53
2023-01-19T00:37:46.133Z,-0.70
2023-01-19T00:40:14.031Z,-0.69
2023-01-19T00:42:40.985Z,-0.69
2023-01-19T00:45:09.648Z,-0.75
2023-01-19T00:47:36.686Z,-0.81
2023-01-19T00:50:03.513Z,-0.77
2023-01-19T00:52:30.158Z,-0.81
2023-01-19T00:54:56.959Z,-0.79
2023-01-19T00:57:23.733Z,-0.79
2023-01-19T00:59:50.396Z,-0.82
2023-01-19T01:02:17.372Z,-0.79
2023-01-19T01:04:44.259Z,-0.76
2023-01-19T01:07:10.887Z,-0.76
2023-01-19T01:09:37.486Z,-0.73
2023-01-19T01:12:04.527Z,-0.67
2023-01-19T01:14:32.786Z,-0.70
2023-01-19T01:17:00.560Z,-0.63
2023-01-19T01:19:27.338Z,-0.67
2023-01-19T01:21:55.434Z,-0.59
2023-01-19T01:24:22.330Z,-0.61
2023-01-19T01:26:49.095Z,-0.59
2023-01-19T01:29:15.803Z,-0.59
2023-01-19T01:31:42.470Z,-0.66
2023-01-19T01:34:09.215Z,-0.64
2023-01-19T01:36:36.120Z,-0.64
2023-01-19T01:39:03.395Z,-0.55
2023-01-19T01:41:30.399Z,-0.55
2023-01-19T01:44:02.935Z,-0.59
2023-01-19T01:46:31.388Z,-0.63
2023-01-19T01:49:04.092Z,-0.61
2023-01-19T01:51:44.187Z,-0.66
2023-01-19T01:54:23.391Z,-0.67
2023-01-19T01:56:52.063Z,-0.68
2023-01-19T01:59:26.035Z,-0.73
2023-01-19T02:02:15.516Z,-0.70
2023-01-19T02:04:50.684Z,-0.78
2023-01-19T02:07:43.199Z,-0.84
2023-01-19T02:10:28.599Z,-0.80
2023-01-19T02:13:14.298Z,-0.76
2023-01-19T02:15:44.131Z,-0.83
2023-01-19T02:18:10.847Z,-0.70
2023-01-19T02:20:39.569Z,-0.74
2023-01-19T02:23:12.658Z,-0.71
2023-01-19T02:25:40.520Z,-0.69
2023-01-19T02:28:07.752Z,-0.74
2023-01-19T02:30:35.676Z,-0.85
2023-01-19T02:33:02.739Z,-0.77
2023-01-19T02:35:31.020Z,-0.78
2023-01-19T02:37:57.917Z,-0.73
2023-01-19T02:40:25.771Z,-0.77
2023-01-19T02:42:53.150Z,-0.81
2023-01-19T02:45:21.570Z,-0.75
2023-01-19T02:47:50.800Z,-0.80
2023-01-19T02:50:35.919Z,-0.71
2023-01-19T02:53:33.969Z,-0.72
2023-01-19T02:56:28.554Z,-0.67
2023-01-19T02:59:15.563Z,-0.68
2023-01-19T03:02:08.823Z,-0.70
2023-01-19T03:05:00.528Z,-0.71
2023-01-19T03:07:53.305Z,-0.70
2023-01-19T03:10:43.457Z,-0.70
2023-01-19T03:13:26.280Z,-0.63
2023-01-19T03:15:56.617Z,-0.69
2023-01-19T03:18:26.299Z,-0.63
2023-01-19T03:20:56.629Z,-0.64
2023-01-19T03:23:26.664Z,-0.64
2023-01-19T03:25:54.443Z,-0.60
2023-01-19T03:28:22.822Z,-0.53
2023-01-19T03:30:56.622Z,-0.55
2023-01-19T03:33:27.396Z,-0.51
2023-01-19T03:35:58.798Z,-0.56
2023-01-19T03:38:26.354Z,-0.56
2023-01-19T03:40:59.147Z,-0.61
2023-01-19T03:43:26.592Z,-0.47
2023-01-19T03:45:53.422Z,-0.49
2023-01-19T03:48:21.402Z,-0.47
2023-01-19T03:50:48.179Z,-0.49
2023-01-19T03:53:16.643Z,-0.44
2023-01-19T03:55:47.051Z,-0.44
2023-01-19T03:58:13.930Z,-0.45
2023-01-19T04:00:40.619Z,-0.49
2023-01-19T04:03:13.352Z,-0.43
2023-01-19T04:05:40.238Z,-0.41
2023-01-19T04:08:06.968Z,-0.42
2023-01-19T04:10:33.691Z,-0.45
2023-01-19T04:13:01.736Z,-0.42
2023-01-19T04:15:29.171Z,-0.36
2023-01-19T04:18:00.188Z,-0.41
2023-01-19T04:20:28.169Z,-0.36
2023-01-19T04:22:56.116Z,-0.40
2023-01-19T04:25:22.945Z,-0.44
2023-01-19T04:27:52.861Z,-0.41
2023-01-19T04:30:19.843Z,-0.34
2023-01-19T04:32:46.743Z,-0.35
2023-01-19T04:35:13.516Z,-0.32
2023-01-19T04:37:40.222Z,-0.29
2023-01-19T04:40:07.745Z,-0.26
2023-01-19T04:42:34.739Z,-0.27
2023-01-19T04:45:01.417Z,-0.27
2023-01-19T04:47:29.399Z,-0.34
2023-01-19T04:49:55.996Z,-0.32
2023-01-19T04:52:22.659Z,-0.26
2023-01-19T04:54:49.274Z,-0.30
2023-01-19T04:57:15.894Z,-0.20
2023-01-19T04:59:42.787Z,-0.18
2023-01-19T05:02:09.512Z,-0.11
2023-01-19T05:04:36.364Z,-0.22
2023-01-19T05:07:03.136Z,-0.09
2023-01-19T05:09:29.750Z,-0.16
2023-01-19T05:11:56.474Z,-0.16
2023-01-19T05:14:23.228Z,-0.13
2023-01-19T05:16:50.143Z,-0.14
2023-01-19T05:19:17.110Z,-0.16
2023-01-19T05:21:43.920Z,-0.14
2023-01-19T05:24:11.052Z,-0.09
2023-01-19T05:26:37.823Z,-0.11
2023-01-19T05:29:04.681Z,-0.07
2023-01-19T05:31:31.455Z,-0.07
2023-01-19T05:34:01.641Z,-0.10
2023-01-19T05:36:28.307Z,-0.09
2023-01-19T05:38:54.968Z,-0.11
2023-01-19T05:41:21.740Z,-0.07
2023-01-19T05:43:48.426Z,-0.05
2023-01-19T05:46:15.314Z,-0.09
2023-01-19T05:48:41.947Z,-0.04
2023-01-19T05:51:08.966Z,0.00
2023-01-19T05:53:35.582Z,-0.04
2023-01-19T05:56:05.083Z,-0.05
2023-01-19T05:58:34.336Z,-0.04
2023-01-19T06:01:06.396Z,-0.03
2023-01-19T06:03:34.471Z,-0.03
2023-01-19T06:06:01.612Z,-0.07
2023-01-19T06:08:28.327Z,0.01
2023-01-19T06:10:55.159Z,0.04
2023-01-19T06:13:21.921Z,0.02
2023-01-19T06:15:48.668Z,0.01
2023-01-19T06:18:15.373Z,0.06
2023-01-19T06:20:42.027Z,0.03
2023-01-19T06:23:08.736Z,0.02
2023-01-19T06:25:35.383Z,0.03
2023-01-19T06:28:02.045Z,0.05
2023-01-19T06:30:29.003Z,-0.03
2023-01-19T06:32:55.849Z,-0.05
2023-01-19T06:35:22.514Z,-0.04
2023-01-19T06:37:49.194Z,-0.03
2023-01-19T06:40:15.850Z,-0.14
2023-01-19T06:42:42.610Z,-0.08
2023-01-19T06:45:10.164Z,-0.06
2023-01-19T06:47:36.855Z,-0.06
2023-01-19T06:50:03.565Z,-0.05
2023-01-19T06:52:30.247Z,-0.07
2023-01-19T06:54:56.931Z,-0.09
2023-01-19T06:57:23.657Z,-0.05
2023-01-19T06:59:50.294Z,-0.04
2023-01-19T07:02:27.062Z,0.02
2023-01-19T07:04:56.350Z,0.02
2023-01-19T07:07:23.039Z,0.04
2023-01-19T07:09:49.768Z,0.05
2023-01-19T07:12:20.607Z,0.04
2023-01-19T07:14:49.298Z,0.04
2023-01-19T07:17:15.982Z,0.01
2023-01-19T07:19:42.978Z,0.02
2023-01-19T07:22:09.663Z,0.06
2023-01-19T07:24:37.952Z,0.06
2023-01-19T07:27:05.331Z,0.12
2023-01-19T07:29:31.991Z,0.12
2023-01-19T07:31:58.654Z,0.14
2023-01-19T07:34:25.311Z,0.18
2023-01-19T07:36:51.963Z,0.12
2023-01-19T07:39:18.697Z,0.20
2023-01-19T07:41:45.406Z,0.19
2023-01-19T07:44:13.950Z,0.14
2023-01-19T07:46:41.159Z,0.15
2023-01-19T07:49:08.095Z,0.18
2023-01-19T07:51:34.794Z,0.20
2023-01-19T07:54:01.689Z,0.22
2023-01-19T07:56:32.634Z,0.22
2023-01-19T07:58:59.524Z,0.24
2023-01-19T08:01:26.296Z,0.20
2023-01-19T08:03:53.142Z,0.25
2023-01-19T08:06:22.271Z,0.25
2023-01-19T08:08:49.340Z,0.29
2023-01-19T08:11:16.282Z,0.26
2023-01-19T08:13:43.483Z,0.24
2023-01-19T08:16:10.758Z,0.25
2023-01-19T08:18:37.598Z,0.29
2023-01-19T08:21:04.813Z,0.31
2023-01-19T08:23:31.465Z,0.30
2023-01-19T08:25:58.096Z,0.30
2023-01-19T08:28:24.811Z,0.34
2023-01-19T08:30:54.620Z,0.34
2023-01-19T08:33:23.154Z,0.32
2023-01-19T08:35:52.375Z,0.31
2023-01-19T08:38:19.403Z,0.35
2023-01-19T08:40:46.182Z,0.36
2023-01-19T08:43:15.649Z,0.38
2023-01-19T08:45:49.056Z,0.41
2023-01-19T08:48:16.163Z,0.29
2023-01-19T08:50:45.205Z,0.41
2023-01-19T08:53:11.921Z,0.45
2023-01-19T08:55:39.177Z,0.46
2023-01-19T08:58:06.515Z,0.48
2023-01-19T09:00:38.013Z,0.47
2023-01-19T09:03:06.536Z,0.50
2023-01-19T09:05:39.019Z,0.49
2023-01-19T09:08:11.103Z,0.52
2023-01-19T09:10:39.024Z,0.55
2023-01-19T09:13:08.418Z,0.59
2023-01-19T09:15:37.589Z,0.61
2023-01-19T09:18:05.869Z,0.63
2023-01-19T09:20:34.574Z,0.68
2023-01-19T09:23:01.355Z,0.64
2023-01-19T09:25:27.994Z,0.70
2023-01-19T09:27:56.065Z,0.68
2023-01-19T09:30:22.739Z,0.64
2023-01-19T09:32:49.375Z,0.63
2023-01-19T09:35:16.453Z,0.64
2023-01-19T09:37:47.161Z,0.60
2023-01-19T09:40:15.338Z,0.62
2023-01-19T09:42:43.997Z,0.60
2023-01-19T09:45:36.574Z,0.64
2023-01-19T09:48:19.193Z,0.65
2023-01-19T09:50:47.435Z,0.71
2023-01-19T09:53:18.795Z,0.74
2023-01-19T09:55:45.654Z,0.78
2023-01-19T09:58:16.195Z,0.77
2023-01-19T10:00:50.017Z,0.81
2023-01-19T10:03:17.777Z,0.85
2023-01-19T10:06:03.613Z,0.81
2023-01-19T10:08:46.521Z,0.85
2023-01-19T10:11:26.307Z,0.88
2023-01-19T10:13:54.657Z,0.92
2023-01-19T10:17:15.629Z,0.91
2023-01-19T10:19:46.823Z,0.95
2023-01-19T10:22:25.724Z,0.95
2023-01-19T10:24:56.354Z,1.00
2023-01-19T10:27:28.925Z,1.00
2023-01-19T10:29:56.701Z,1.03
2023-01-19T10:32:26.241Z,1.02
2023-01-19T10:34:53.968Z,1.05
2023-01-19T10:37:32.777Z,1.03
2023-01-19T10:40:11.609Z,1.05
2023-01-19T10:42:41.427Z,1.08
2023-01-19T10:45:25.942Z,1.07
2023-01-19T10:47:53.895Z,1.11
2023-01-19T10:50:34.962Z,1.07
2023-01-19T10:53:04.016Z,1.11
2023-01-19T10:55:34.284Z,1.14
2023-01-19T10:58:01.941Z,1.10
2023-01-19T11:00:33.185Z,1.12
2023-01-19T11:03:00.636Z,1.16
2023-01-19T11:05:32.843Z,1.17
2023-01-19T11:07:59.749Z,1.20
2023-01-19T11:10:30.133Z,1.22
2023-01-19T11:13:15.678Z,1.20
2023-01-19T11:15:45.197Z,1.24
2023-01-19T11:18:25.494Z,1.24
2023-01-19T11:20:53.952Z,1.29
2023-01-19T11:23:33.584Z,1.27
2023-01-19T11:26:01.928Z,1.33
2023-01-19T11:28:32.928Z,1.36
2023-01-19T11:31:16.698Z,1.41
2023-01-19T11:33:51.819Z,1.41
2023-01-19T11:36:30.152Z,1.42
2023-01-19T11:38:59.577Z,1.46
2023-01-19T11:41:28.825Z,1.48
2023-01-19T11:43:58.245Z,1.47
2023-01-19T11:46:28.609Z,1.50
2023-01-19T11:49:01.973Z,1.51
2023-01-19T11:51:34.350Z,1.53
2023-01-19T11:54:03.227Z,1.54
2023-01-19T11:56:29.937Z,1.55
2023-01-19T11:58:56.800Z,1.57
2023-01-19T12:01:26.104Z,1.59
2023-01-19T12:04:04.413Z,1.58
2023-01-19T12:06:35.391Z,1.61
2023-01-19T12:09:06.101Z,1.65
2023-01-19T12:11:37.816Z,1.66
2023-01-19T12:14:04.806Z,1.69
2023-01-19T12:16:32.983Z,1.71
2023-01-19T12:19:02.678Z,1.84
2023-01-19T12:21:29.555Z,1.87
2023-01-19T12:24:16.390Z,1.86
2023-01-19T12:26:43.314Z,1.88
2023-01-19T12:29:15.507Z,1.86
2023-01-19T12:31:45.406Z,1.85
2023-01-19T12:34:40.695Z,1.84
2023-01-19T12:37:27.311Z,1.85
2023-01-19T12:39:54.683Z,1.88
2023-01-19T12:42:21.531Z,1.89
2023-01-19T12:44:48.418Z,1.89
2023-01-19T12:47:15.054Z,1.88
2023-01-19T12:49:43.767Z,1.87
2023-01-19T12:52:51.266Z,1.85
2023-01-19T12:55:22.813Z,1.86
2023-01-19T12:57:55.470Z,1.88
2023-01-19T13:00:22.179Z,1.90
2023-01-19T13:02:58.254Z,1.91
2023-01-19T13:05:32.695Z,1.91
2023-01-19T13:08:02.809Z,1.92
2023-01-19T13:11:00.194Z,1.89
2023-01-19T13:13:30.958Z,1.93
2023-01-19T13:16:19.497Z,1.89
2023-01-19T13:18:54.115Z,1.90
2023-01-19T13:21:35.306Z,1.87
2023-01-19T13:24:16.441Z,1.89
2023-01-19T13:26:49.076Z,1.89
2023-01-19T13:29:21.701Z,1.91
2023-01-19T13:32:02.298Z,1.91
2023-01-19T13:34:33.428Z,1.98
2023-01-19T13:37:01.980Z,1.98
2023-01-19T13:39:37.094Z,2.00
2023-01-19T13:42:07.969Z,2.02
2023-01-19T13:44:41.889Z,2.01
2023-01-19T13:47:15.369Z,2.03
2023-01-19T13:49:46.219Z,2.06
2023-01-19T13:52:20.975Z,2.05
2023-01-19T13:54:59.799Z,2.07
2023-01-19T13:57:28.853Z,2.08
2023-01-19T14:00:19.459Z,2.07
2023-01-19T14:03:13.220Z,2.05
2023-01-19T14:05:44.239Z,2.10
2023-01-19T14:08:14.799Z,2.09
2023-01-19T14:10:44.224Z,2.09
2023-01-19T14:13:25.780Z,2.06
2023-01-19T14:15:59.004Z,2.09
2023-01-19T14:18:26.810Z,2.00
2023-01-19T14:21:04.211Z,2.04
2023-01-19T14:23:40.475Z,2.07
2023-01-19T14:26:39.269Z,2.13
2023-01-19T14:29:18.413Z,2.14
2023-01-19T14:31:47.346Z,2.16
2023-01-19T14:34:39.656Z,2.11
2023-01-19T14:37:28.714Z,2.09
2023-01-19T14:40:11.142Z,2.13
2023-01-19T14:43:00.155Z,2.08
2023-01-19T14:45:32.494Z,2.11
2023-01-19T14:48:06.406Z,2.10
2023-01-19T14:50:36.435Z,2.10
2023-01-19T14:53:05.857Z,2.11
2023-01-19T14:55:36.633Z,2.09
2023-01-19T14:58:10.175Z,2.06
2023-01-19T15:00:36.922Z,2.08
2023-01-19T15:03:07.494Z,2.06
2023-01-19T15:05:34.342Z,2.06
2023-01-19T15:08:02.089Z,2.05
2023-01-19T15:10:29.005Z,2.04
2023-01-19T15:12:56.282Z,2.03
2023-01-19T15:15:29.618Z,2.02
2023-01-19T15:17:56.405Z,1.92
2023-01-19T15:20:23.776Z,1.98
2023-01-19T15:22:50.500Z,1.97
2023-01-19T15:25:20.208Z,1.97
2023-01-19T15:27:47.689Z,1.98
2023-01-19T15:30:27.839Z,1.94
2023-01-19T15:32:54.551Z,1.95
2023-01-19T15:35:22.747Z,1.95
2023-01-19T15:37:50.719Z,1.94
2023-01-19T15:40:19.050Z,1.95
2023-01-19T15:42:45.875Z,1.94
2023-01-19T15:45:33.774Z,1.90
2023-01-19T15:48:11.163Z,1.89
2023-01-19T15:50:40.906Z,1.91
2023-01-19T15:53:07.952Z,1.91
2023-01-19T15:55:34.646Z,1.89
2023-01-19T15:58:01.691Z,1.89
2023-01-19T16:00:29.748Z,1.91
2023-01-19T16:02:56.734Z,1.90
2023-01-19T16:05:30.606Z,1.90
2023-01-19T16:08:04.422Z,1.88
2023-01-19T16:10:31.175Z,1.87
2023-01-19T16:12:57.879Z,1.89
2023-01-19T16:15:25.372Z,1.90
2023-01-19T16:17:52.094Z,1.89
2023-01-19T16:20:18.790Z,1.89
2023-01-19T16:22:45.483Z,1.87
2023-01-19T16:25:12.311Z,1.86
2023-01-19T16:27:39.090Z,1.88
2023-01-19T16:30:06.385Z,1.88
2023-01-19T16:32:33.842Z,1.86
2023-01-19T16:35:00.616Z,1.86
2023-01-19T16:37:28.148Z,1.85
2023-01-19T16:39:54.956Z,1.83
2023-01-19T16:42:21.759Z,1.83
2023-01-19T16:44:48.508Z,1.84
2023-01-19T16:47:15.548Z,1.84
2023-01-19T16:49:42.397Z,1.81
2023-01-19T16:52:09.349Z,1.78
2023-01-19T16:54:37.423Z,1.77
2023-01-19T16:57:05.369Z,1.77
2023-01-19T16:59:32.135Z,1.76
2023-01-19T17:01:59.009Z,1.74
2023-01-19T17:04:27.139Z,1.74
2023-01-19T17:06:54.646Z,1.75
2023-01-19T17:09:21.557Z,1.74
2023-01-19T17:11:48.455Z,1.68
2023-01-19T17:14:19.734Z,1.69
2023-01-19T17:16:47.414Z,1.68
2023-01-19T17:19:16.455Z,1.68
2023-01-19T17:21:48.615Z,1.68
2023-01-19T17:24:15.914Z,1.68
2023-01-19T17:26:42.778Z,1.63
2023-01-19T17:29:09.890Z,1.64
2023-01-19T17:31:36.995Z,1.63
2023-01-19T17:34:04.055Z,1.64
2023-01-19T17:36:31.590Z,1.63
2023-01-19T17:39:00.153Z,1.63
2023-01-19T17:41:29.228Z,1.61
2023-01-19T17:48:10.780Z,1.56
2023-01-19T17:50:37.642Z,1.57
2023-01-19T17:53:04.403Z,1.57
2023-01-19T17:55:34.577Z,1.55
2023-01-19T17:58:01.938Z,1.58
2023-01-19T18:00:29.073Z,1.57
2023-01-19T18:02:55.805Z,1.57
2023-01-19T18:05:23.836Z,1.55
2023-01-19T18:07:50.560Z,1.57
2023-01-19T18:10:17.418Z,1.56
2023-01-19T18:12:45.207Z,1.55
2023-01-19T18:15:12.291Z,1.54
2023-01-19T18:17:39.019Z,1.53
2023-01-19T18:20:06.122Z,1.52
2023-01-19T18:22:33.389Z,1.51
2023-01-19T18:25:01.570Z,1.52
2023-01-19T18:27:29.131Z,1.51
2023-01-19T18:29:56.556Z,1.50
2023-01-19T18:32:23.298Z,1.50
2023-01-19T18:34:52.249Z,1.52
2023-01-19T18:37:19.023Z,1.48
2023-01-19T18:39:46.309Z,1.50
2023-01-19T18:42:13.054Z,1.48
2023-01-19T18:44:39.762Z,1.45
2023-01-19T18:47:06.479Z,1.45
2023-01-19T18:49:33.199Z,1.45
2023-01-19T18:51:59.899Z,1.49
2023-01-19T18:54:26.560Z,1.46
2023-01-19T18:56:53.334Z,1.43
2023-01-19T18:59:20.159Z,1.45
2023-01-19T19:01:46.906Z,1.45
2023-01-19T19:04:13.766Z,1.46
2023-01-19T19:06:40.454Z,1.47
2023-01-19T19:09:07.250Z,1.48
2023-01-19T19:11:34.384Z,1.46
2023-01-19T19:14:02.031Z,1.42
2023-01-19T19:16:29.559Z,1.44
2023-01-19T19:18:56.390Z,1.43
2023-01-19T19:21:25.424Z,1.45
2023-01-19T19:23:54.081Z,1.48
2023-01-19T19:26:23.942Z,1.45
2023-01-19T19:32:05.863Z,1.35
2023-01-19T19:34:33.839Z,1.39
2023-01-19T19:37:01.344Z,1.42
2023-01-19T19:39:28.669Z,1.42
2023-01-19T19:41:55.407Z,1.38
2023-01-19T19:44:22.276Z,1.41
2023-01-19T19:46:49.228Z,1.43
2023-01-19T19:49:21.264Z,1.41
2023-01-19T19:51:48.591Z,1.44
2023-01-19T19:54:15.306Z,1.45
2023-01-19T19:56:41.982Z,1.45
2023-01-19T19:59:08.718Z,1.45
2023-01-19T20:01:35.528Z,1.44
2023-01-19T20:04:07.673Z,1.40
2023-01-19T20:06:38.717Z,1.41
2023-01-19T20:09:07.734Z,1.42
2023-01-19T20:11:34.889Z,1.41
2023-01-19T20:14:07.871Z,1.37
2023-01-19T20:16:34.858Z,1.40
2023-01-19T20:19:01.597Z,1.42
2023-01-19T20:21:30.778Z,1.43
2023-01-19T20:24:00.739Z,1.44
2023-01-19T20:26:30.327Z,1.44
2023-01-19T20:28:59.751Z,1.40
2023-01-19T20:31:29.159Z,1.43
2023-01-19T20:33:58.054Z,1.42
2023-01-19T20:36:24.923Z,1.47
2023-01-19T20:38:53.277Z,1.44
2023-01-19T20:41:21.020Z,1.44
2023-01-19T20:43:47.770Z,1.44
2023-01-19T20:46:14.466Z,1.42
2023-01-19T20:48:41.241Z,1.40
2023-01-19T20:51:10.663Z,1.43
2023-01-19T20:53:38.126Z,1.40
2023-01-19T20:56:06.275Z,1.40
2023-01-19T20:58:33.414Z,1.39
2023-01-19T21:01:00.126Z,1.40
2023-01-19T21:03:26.963Z,1.39
2023-01-19T21:05:53.645Z,1.42
2023-01-19T21:08:20.491Z,1.42
2023-01-19T21:10:47.171Z,1.38
2023-01-19T21:13:13.983Z,1.39
2023-01-19T21:15:40.628Z,1.41
2023-01-19T21:18:07.423Z,1.42
2023-01-19T21:20:34.116Z,1.41
2023-01-19T21:23:00.783Z,1.40
2023-01-19T21:25:27.533Z,1.38
2023-01-19T21:27:54.174Z,1.39
2023-01-19T21:30:20.996Z,1.35
2023-01-19T21:32:47.805Z,1.38
2023-01-19T21:35:14.864Z,1.41
2023-01-19T21:37:41.895Z,1.42
2023-01-19T21:40:09.279Z,1.42
2023-01-19T21:42:35.917Z,1.43
2023-01-19T21:45:02.663Z,1.42
2023-01-19T21:47:29.396Z,1.44
2023-01-19T21:49:56.171Z,1.44
2023-01-19T21:52:22.908Z,1.43
2023-01-19T21:54:49.644Z,1.39
2023-01-19T21:57:19.513Z,1.40
2023-01-19T21:59:46.218Z,1.39
2023-01-19T22:02:13.143Z,1.43
2023-01-19T22:04:40.599Z,1.42
2023-01-19T22:07:07.373Z,1.45
2023-01-19T22:09:35.030Z,1.41
2023-01-19T22:12:02.158Z,1.39
2023-01-19T22:14:29.346Z,1.39
2023-01-19T22:16:56.112Z,1.39
2023-01-19T22:19:22.936Z,1.40
2023-01-19T22:21:49.606Z,1.42
2023-01-19T22:24:16.383Z,1.42
2023-01-19T22:26:43.079Z,1.42
2023-01-19T22:29:11.239Z,1.44
2023-01-19T22:31:38.899Z,1.38
2023-01-19T22:34:10.099Z,1.39
2023-01-19T22:36:37.576Z,1.40
2023-01-19T22:39:09.829Z,1.40
2023-01-19T22:41:39.364Z,1.37
2023-01-19T22:44:08.703Z,1.38
2023-01-19T22:46:36.512Z,1.39
2023-01-19T22:49:07.615Z,1.47
2023-01-19T22:51:34.844Z,1.47
2023-01-19T22:54:02.400Z,1.48
2023-01-19T22:56:30.891Z,1.44
2023-01-19T22:58:58.031Z,1.44
2023-01-19T23:01:33.572Z,1.42
2023-01-19T23:04:01.794Z,1.43
2023-01-19T23:06:30.376Z,1.38
2023-01-19T23:08:59.320Z,1.38
2023-01-19T23:11:35.569Z,1.38
2023-01-19T23:14:03.204Z,1.37
2023-01-19T23:16:30.055Z,1.38
2023-01-19T23:18:57.772Z,1.37
2023-01-19T23:21:26.988Z,1.37
2023-01-19T23:24:01.263Z,1.36
2023-01-19T23:26:28.767Z,1.41
2023-01-19T23:29:00.396Z,1.44
2023-01-19T23:31:32.703Z,1.36
2023-01-19T23:34:01.563Z,1.37
2023-01-19T23:36:30.175Z,1.34
2023-01-19T23:38:58.751Z,1.35
2023-01-19T23:41:26.337Z,1.35
2023-01-19T23:43:53.003Z,1.37
2023-01-19T23:46:20.186Z,1.37
2023-01-19T23:48:47.147Z,1.35
2023-01-19T23:51:19.766Z,1.30
2023-01-19T23:53:46.777Z,1.29
2023-01-19T23:56:17.364Z,1.32
2023-01-19T23:58:45.370Z,1.35
